Time;durP1;ratioP1;P1;durP2;ratioP2;P2;SDS_P1;SDS_P2;PMS_P1;PMS_P2;Temp;Humidity;BMP_temperature;BMP_pressure;BME280_temperature;BME280_humidity;BME280_pressure;Samples;Min_cycle;Max_cycle;Signal;HPM_P1;HPM_P2
2022/07/24 00:01:49;;;;;;;27.63;23.67;;;19.10;99.90;;;;;;4857408;29;37366;-82
2022/07/24 00:04:15;;;;;;;26.20;23.42;;;19.10;99.90;;;;;;4861306;29;37125;-82
2022/07/24 00:06:42;;;;;;;27.25;23.80;;;19.10;99.90;;;;;;4873062;29;38165;-82
2022/07/24 00:09:08;;;;;;;31.38;25.08;;;19.10;99.90;;;;;;4872537;29;39814;-82
2022/07/24 00:11:34;;;;;;;30.13;25.17;;;18.90;99.90;;;;;;4858418;29;38759;-82
2022/07/24 00:14:00;;;;;;;30.77;25.80;;;18.90;99.90;;;;;;4856828;29;37898;-82
2022/07/24 00:16:26;;;;;;;31.75;28.33;;;19.00;99.90;;;;;;4855815;29;37131;-82
2022/07/24 00:18:53;;;;;;;32.60;26.75;;;18.90;99.90;;;;;;4858240;29;37813;-82
2022/07/24 00:21:19;;;;;;;28.08;25.05;;;18.90;99.90;;;;;;4858847;29;37595;-82
2022/07/24 00:23:45;;;;;;;30.85;25.95;;;18.80;99.90;;;;;;4858236;29;38150;-82
2022/07/24 00:26:12;;;;;;;31.90;27.58;;;18.80;99.90;;;;;;4856257;29;36574;-82
2022/07/24 00:28:38;;;;;;;31.85;28.45;;;18.80;99.90;;;;;;4858177;29;37780;-82
2022/07/24 00:31:05;;;;;;;32.67;27.73;;;18.80;99.90;;;;;;4857003;29;38788;-83
2022/07/24 00:33:31;;;;;;;32.70;27.40;;;18.80;99.90;;;;;;4855610;29;37168;-82
2022/07/24 00:35:57;;;;;;;32.88;29.20;;;18.80;99.90;;;;;;4857656;29;36486;-82
2022/07/24 00:38:23;;;;;;;32.53;27.20;;;18.70;99.90;;;;;;4858364;29;37652;-83
2022/07/24 00:40:49;;;;;;;29.63;26.40;;;18.70;99.90;;;;;;4875259;29;37944;-83
2022/07/24 00:43:16;;;;;;;31.17;26.13;;;18.70;99.90;;;;;;4853240;29;37338;-82
2022/07/24 00:45:43;;;;;;;32.45;26.55;;;18.60;99.90;;;;;;4872753;29;37250;-82
2022/07/24 00:48:10;;;;;;;27.48;24.55;;;18.60;99.90;;;;;;4857675;29;37483;-81
2022/07/24 00:50:37;;;;;;;31.27;24.88;;;18.70;99.90;;;;;;4858336;29;37566;-82
2022/07/24 00:53:04;;;;;;;27.40;22.73;;;18.60;99.90;;;;;;4857423;29;37164;-82
2022/07/24 00:55:32;;;;;;;27.25;22.60;;;18.70;99.90;;;;;;4859575;29;36988;-82
2022/07/24 00:57:58;;;;;;;25.38;20.85;;;18.70;99.90;;;;;;4874152;29;39538;-82
2022/07/24 01:00:24;;;;;;;22.10;18.13;;;18.70;99.90;;;;;;4860963;29;37910;-82
2022/07/24 01:02:51;;;;;;;25.33;21.50;;;18.70;99.90;;;;;;4859553;29;38286;-83
2022/07/24 01:05:18;;;;;;;20.85;18.73;;;18.70;99.90;;;;;;4859433;29;36470;-83
2022/07/24 01:07:45;;;;;;;21.13;18.48;;;18.70;99.90;;;;;;4860301;29;37441;-82
2022/07/24 01:10:11;;;;;;;22.33;18.25;;;18.60;99.90;;;;;;4876622;29;39407;-82
2022/07/24 01:12:40;;;;;;;21.52;18.58;;;18.70;99.90;;;;;;4857721;29;37177;-83
2022/07/24 01:15:09;;;;;;;23.35;19.63;;;18.60;99.90;;;;;;4865815;29;38172;-82
2022/07/24 01:17:37;;;;;;;25.35;19.33;;;18.60;99.90;;;;;;4875817;29;39698;-82
2022/07/24 01:20:05;;;;;;;25.73;19.15;;;18.60;99.90;;;;;;4858689;29;37911;-82
2022/07/24 01:22:31;;;;;;;21.67;17.70;;;18.60;99.90;;;;;;4858861;29;47057;-82
2022/07/24 01:24:58;;;;;;;21.92;17.90;;;18.60;99.90;;;;;;4875699;29;37498;-82
2022/07/24 01:27:24;;;;;;;26.27;19.85;;;18.60;99.90;;;;;;4855654;29;38044;-82
2022/07/24 01:29:51;;;;;;;23.42;18.65;;;18.60;99.90;;;;;;4856837;29;38250;-83
2022/07/24 01:32:18;;;;;;;18.77;15.77;;;18.60;99.90;;;;;;4874034;29;39094;-83
2022/07/24 01:34:44;;;;;;;21.25;16.45;;;18.50;99.90;;;;;;4855829;29;38008;-82
2022/07/24 01:37:11;;;;;;;20.90;16.02;;;18.50;99.90;;;;;;4873103;29;39820;-81
2022/07/24 01:39:37;;;;;;;22.50;16.58;;;18.60;99.90;;;;;;4845918;29;37372;-82
2022/07/24 01:42:03;;;;;;;21.08;16.00;;;18.50;99.90;;;;;;4873656;29;38808;-83
2022/07/24 01:44:29;;;;;;;23.67;17.02;;;18.50;99.90;;;;;;4862967;29;37652;-82
2022/07/24 01:46:55;;;;;;;22.63;16.90;;;18.50;99.90;;;;;;4854489;29;37847;-82
2022/07/24 01:49:21;;;;;;;23.83;16.52;;;18.50;99.90;;;;;;4856711;29;38744;-82
2022/07/24 01:51:48;;;;;;;20.23;15.55;;;18.40;99.90;;;;;;4860959;29;37215;-82
2022/07/24 01:54:14;;;;;;;18.30;15.40;;;18.40;99.90;;;;;;4853020;29;36306;-82
2022/07/24 01:56:40;;;;;;;18.00;15.68;;;18.40;99.90;;;;;;4869348;29;38726;-81
2022/07/24 01:59:06;;;;;;;21.00;15.80;;;18.40;99.90;;;;;;4855198;29;37095;-82
2022/07/24 02:01:33;;;;;;;20.10;15.07;;;18.40;99.90;;;;;;4857281;29;37205;-82
2022/07/24 02:03:59;;;;;;;15.40;13.60;;;18.40;99.90;;;;;;4856147;29;36507;-82
2022/07/24 02:06:25;;;;;;;18.42;13.70;;;18.40;99.90;;;;;;4872621;29;38347;-82
2022/07/24 02:08:51;;;;;;;15.50;12.48;;;18.40;99.90;;;;;;4872881;29;38767;-82
2022/07/24 02:11:18;;;;;;;16.48;12.50;;;18.40;99.90;;;;;;4854223;29;37697;-82
2022/07/24 02:13:45;;;;;;;14.98;11.60;;;18.40;99.90;;;;;;4857460;29;36734;-82
2022/07/24 02:16:12;;;;;;;14.52;11.23;;;18.30;99.90;;;;;;4856068;29;38709;-83
2022/07/24 02:18:38;;;;;;;13.55;11.25;;;18.30;99.90;;;;;;4855438;29;37566;-83
2022/07/24 02:21:04;;;;;;;14.57;10.82;;;18.30;99.90;;;;;;4872760;29;37940;-82
2022/07/24 02:23:30;;;;;;;19.45;11.80;;;18.20;99.90;;;;;;4856747;29;36146;-82
2022/07/24 02:25:56;;;;;;;14.93;11.63;;;18.20;99.90;;;;;;4873449;29;38956;-82
2022/07/24 02:28:22;;;;;;;14.30;10.23;;;18.20;99.90;;;;;;4855975;29;38741;-83
2022/07/24 02:30:49;;;;;;;17.10;11.68;;;18.20;99.90;;;;;;4864861;29;37089;-82
2022/07/24 02:33:15;;;;;;;14.13;10.60;;;18.10;99.90;;;;;;4856104;29;36542;-83
2022/07/24 02:35:41;;;;;;;17.52;12.00;;;18.10;99.90;;;;;;4860200;29;37692;-83
2022/07/24 02:38:07;;;;;;;14.73;10.90;;;18.00;99.90;;;;;;4851901;29;38427;-83
2022/07/24 02:40:33;;;;;;;16.80;10.80;;;18.00;99.90;;;;;;4857189;29;37265;-83
2022/07/24 02:42:59;;;;;;;15.95;11.27;;;18.00;99.90;;;;;;4862895;29;37170;-83
2022/07/24 02:45:25;;;;;;;14.82;11.38;;;18.00;99.90;;;;;;4855898;29;39155;-83
2022/07/24 02:47:56;;;;;;;14.23;11.10;;;18.00;99.90;;;;;;4872760;29;38763;-83
2022/07/24 02:50:25;;;;;;;14.15;11.18;;;18.00;99.90;;;;;;4856003;29;37201;-83
2022/07/24 02:52:51;;;;;;;16.17;10.63;;;18.00;99.90;;;;;;4874473;29;37098;-83
2022/07/24 02:55:17;;;;;;;11.43;9.00;;;17.80;99.90;;;;;;4873576;29;39156;-81
2022/07/24 02:57:43;;;;;;;11.55;8.95;;;17.90;99.90;;;;;;4858789;29;38310;-83
2022/07/24 03:00:13;;;;;;;11.60;8.32;;;17.80;99.90;;;;;;4860240;29;36901;-82
2022/07/24 03:02:40;;;;;;;11.40;7.80;;;17.80;99.90;;;;;;4874818;29;37673;-82
2022/07/24 03:05:06;;;;;;;11.35;7.80;;;17.80;99.90;;;;;;4858250;29;38312;-82
2022/07/24 03:07:33;;;;;;;10.48;8.43;;;17.80;99.90;;;;;;4877334;29;38773;-83
2022/07/24 03:09:59;;;;;;;11.32;7.57;;;17.70;99.90;;;;;;4876368;29;39616;-82
2022/07/24 03:12:25;;;;;;;10.13;7.60;;;17.70;99.90;;;;;;4856779;29;37589;-82
2022/07/24 03:14:51;;;;;;;8.88;7.85;;;17.70;99.90;;;;;;4876760;29;38771;-83
2022/07/24 03:17:17;;;;;;;9.00;6.60;;;17.60;99.90;;;;;;4858707;29;37822;-82
2022/07/24 03:19:43;;;;;;;8.15;6.10;;;17.50;99.90;;;;;;4875385;29;38174;-82
2022/07/24 03:22:09;;;;;;;8.90;7.20;;;17.50;99.90;;;;;;4854524;29;36169;-83
2022/07/24 03:24:35;;;;;;;10.85;6.03;;;17.50;99.90;;;;;;4859314;29;37537;-82
2022/07/24 03:27:02;;;;;;;11.00;6.97;;;17.50;99.90;;;;;;4857778;29;37366;-83
2022/07/24 03:29:28;;;;;;;9.15;5.70;;;17.50;99.90;;;;;;4860352;29;37418;-82
2022/07/24 03:31:54;;;;;;;9.65;6.03;;;17.50;99.90;;;;;;4876235;29;37286;-83
2022/07/24 03:34:20;;;;;;;7.05;5.22;;;17.40;99.90;;;;;;4857911;29;38682;-83
2022/07/24 03:36:46;;;;;;;6.20;4.80;;;17.30;99.90;;;;;;4859601;29;37214;-84
2022/07/24 03:39:12;;;;;;;6.10;4.78;;;17.30;99.90;;;;;;4854271;29;37576;-83
2022/07/24 03:41:38;;;;;;;5.30;4.80;;;17.20;99.90;;;;;;4858339;29;36586;-83
2022/07/24 03:44:04;;;;;;;7.88;5.30;;;17.20;99.90;;;;;;4859153;29;38332;-85
2022/07/24 03:46:30;;;;;;;5.97;4.43;;;17.20;99.90;;;;;;4859245;29;37508;-82
2022/07/24 03:48:57;;;;;;;7.32;4.82;;;17.20;99.90;;;;;;4856950;29;38883;-83
2022/07/24 03:51:24;;;;;;;9.43;5.22;;;17.30;99.90;;;;;;4858138;29;36115;-84
2022/07/24 03:53:50;;;;;;;6.65;4.65;;;17.20;99.90;;;;;;4858686;29;37857;-84
2022/07/24 03:56:16;;;;;;;10.07;5.45;;;17.20;99.90;;;;;;4856919;29;38729;-83
2022/07/24 03:58:43;;;;;;;6.10;4.13;;;17.20;99.90;;;;;;4856413;29;36901;-84
2022/07/24 04:01:09;;;;;;;6.53;4.72;;;17.20;99.90;;;;;;4875037;29;37473;-83
2022/07/24 04:03:35;;;;;;;5.45;4.32;;;17.20;99.90;;;;;;4875427;29;39213;-83
2022/07/24 04:06:03;;;;;;;5.80;4.28;;;17.20;99.90;;;;;;4858054;29;37577;-83
2022/07/24 04:08:29;;;;;;;5.80;3.92;;;17.20;99.90;;;;;;4859148;29;37872;-84
2022/07/24 04:10:59;;;;;;;5.57;4.20;;;17.20;99.90;;;;;;4875784;29;38201;-83
2022/07/24 04:13:29;;;;;;;4.93;3.58;;;17.20;99.90;;;;;;4855980;29;38379;-84
2022/07/24 04:15:56;;;;;;;9.23;4.47;;;17.20;99.90;;;;;;4857265;29;38442;-84
2022/07/24 04:18:23;;;;;;;6.07;4.03;;;17.10;99.90;;;;;;4859195;29;37167;-82
2022/07/24 04:20:49;;;;;;;7.22;4.43;;;17.10;99.90;;;;;;4858360;29;36299;-84
2022/07/24 04:23:16;;;;;;;5.40;4.38;;;17.10;99.90;;;;;;4871877;29;38823;-86
2022/07/24 04:25:42;;;;;;;6.63;4.65;;;17.10;99.90;;;;;;4874876;29;39092;-86
2022/07/24 04:28:08;;;;;;;6.88;4.85;;;17.10;99.90;;;;;;4856545;29;37194;-85
2022/07/24 04:30:35;;;;;;;5.25;4.68;;;17.10;99.90;;;;;;4857571;29;37057;-85
2022/07/24 04:33:01;;;;;;;8.35;5.85;;;17.10;99.90;;;;;;4858075;29;41040;-85
2022/07/24 04:35:27;;;;;;;6.75;6.03;;;17.10;99.90;;;;;;4858604;29;47390;-85
2022/07/24 04:37:53;;;;;;;9.80;6.28;;;17.10;99.90;;;;;;4871759;29;38647;-84
2022/07/24 04:40:19;;;;;;;11.63;7.32;;;17.10;99.90;;;;;;4857396;29;36640;-85
2022/07/24 04:42:45;;;;;;;10.60;7.75;;;17.00;99.90;;;;;;4858150;29;39440;-84
2022/07/24 04:45:12;;;;;;;10.02;7.13;;;17.10;99.90;;;;;;4874949;29;38994;-84
2022/07/24 04:47:39;;;;;;;11.18;6.13;;;17.10;99.90;;;;;;4857012;29;37154;-85
2022/07/24 04:50:06;;;;;;;11.38;6.55;;;17.20;99.90;;;;;;4857106;29;36413;-84
2022/07/24 04:52:32;;;;;;;10.07;6.57;;;17.20;99.90;;;;;;4873869;29;38906;-84
2022/07/24 04:54:58;;;;;;;8.85;6.13;;;17.30;99.90;;;;;;4855893;29;38708;-85
2022/07/24 04:57:24;;;;;;;7.90;6.50;;;17.30;99.90;;;;;;4873805;29;37706;-84
2022/07/24 04:59:50;;;;;;;8.00;6.60;;;17.30;99.90;;;;;;4857827;29;35919;-85
2022/07/24 05:02:17;;;;;;;7.72;5.68;;;17.30;99.90;;;;;;4855962;29;37538;-84
2022/07/24 05:04:43;;;;;;;11.10;6.10;;;17.30;99.90;;;;;;4856456;29;37355;-84
2022/07/24 05:07:09;;;;;;;7.93;5.65;;;17.30;99.90;;;;;;4857480;29;38580;-84
2022/07/24 05:09:35;;;;;;;6.68;5.55;;;17.30;99.90;;;;;;4858736;29;36379;-84
2022/07/24 05:12:02;;;;;;;6.20;4.97;;;17.40;99.90;;;;;;4854665;29;39918;-82
2022/07/24 05:14:28;;;;;;;7.20;5.60;;;17.40;99.90;;;;;;4858976;29;38795;-84
2022/07/24 05:16:54;;;;;;;7.05;4.82;;;17.40;99.90;;;;;;4857516;29;37053;-83
2022/07/24 05:19:20;;;;;;;10.00;5.88;;;17.50;99.90;;;;;;4872187;29;37229;-84
2022/07/24 05:21:46;;;;;;;7.22;5.10;;;17.50;99.90;;;;;;4856773;29;37769;-84
2022/07/24 05:24:12;;;;;;;7.07;5.35;;;17.60;99.90;;;;;;4857754;29;37984;-83
2022/07/24 05:26:38;;;;;;;6.35;5.07;;;17.70;99.90;;;;;;4856053;29;36764;-83
2022/07/24 05:29:06;;;;;;;8.20;5.60;;;17.80;99.90;;;;;;4846983;29;36345;-84
2022/07/24 05:31:33;;;;;;;8.32;4.95;;;18.10;99.90;;;;;;4873905;29;38892;-84
2022/07/24 05:34:02;;;;;;;5.55;4.47;;;18.40;99.90;;;;;;4862399;29;38625;-83
2022/07/24 05:36:28;;;;;;;5.85;4.55;;;18.60;99.90;;;;;;4857520;29;47314;-83
2022/07/24 05:38:55;;;;;;;4.60;3.72;;;18.70;99.90;;;;;;4846804;29;37804;-83
2022/07/24 05:41:21;;;;;;;6.47;4.13;;;19.00;99.90;;;;;;4855007;29;38279;-84
2022/07/24 05:43:47;;;;;;;5.10;3.95;;;19.20;99.90;;;;;;4857911;29;38412;-82
2022/07/24 05:46:13;;;;;;;4.53;4.10;;;19.50;99.90;;;;;;4872034;29;38861;-82
2022/07/24 05:48:39;;;;;;;6.85;4.15;;;19.60;99.90;;;;;;4870158;29;37156;-81
2022/07/24 05:51:06;;;;;;;5.15;3.78;;;19.50;99.90;;;;;;4857440;29;38249;-83
2022/07/24 05:53:32;;;;;;;5.88;4.18;;;19.40;99.90;;;;;;4856965;29;38364;-82
2022/07/24 05:55:58;;;;;;;6.10;4.40;;;19.40;99.90;;;;;;4856652;29;38555;-82
2022/07/24 05:58:24;;;;;;;7.68;4.10;;;19.70;99.90;;;;;;4855158;29;35998;-82
2022/07/24 06:00:50;;;;;;;6.43;4.22;;;19.80;99.90;;;;;;4856236;29;37603;-81
2022/07/24 06:03:16;;;;;;;5.65;3.78;;;20.10;99.90;;;;;;4856662;29;37447;-82
2022/07/24 06:05:42;;;;;;;4.72;3.30;;;20.20;99.90;;;;;;4856122;29;36802;-82
2022/07/24 06:08:08;;;;;;;4.88;3.13;;;20.40;99.90;;;;;;4855953;29;36450;-82
2022/07/24 06:10:35;;;;;;;4.38;3.25;;;20.20;99.90;;;;;;4857364;29;37762;-82
2022/07/24 06:13:04;;;;;;;5.07;3.30;;;20.10;99.90;;;;;;4856898;29;39163;-83
2022/07/24 06:15:31;;;;;;;4.82;3.40;;;20.00;99.90;;;;;;4855671;29;38322;-82
2022/07/24 06:17:58;;;;;;;3.83;2.85;;;19.90;99.90;;;;;;4857217;29;36635;-82
2022/07/24 06:20:24;;;;;;;4.38;2.45;;;19.70;99.90;;;;;;4855081;29;37450;-82
2022/07/24 06:22:50;;;;;;;2.65;2.30;;;19.80;99.90;;;;;;4854483;29;37686;-82
2022/07/24 06:25:17;;;;;;;5.18;3.17;;;19.70;99.90;;;;;;4859284;29;39853;-83
2022/07/24 06:27:46;;;;;;;3.63;2.83;;;19.90;99.90;;;;;;4869987;29;38180;-82
2022/07/24 06:30:18;;;;;;;4.03;2.53;;;20.30;99.90;;;;;;4855168;29;37904;-81
2022/07/24 06:32:44;;;;;;;2.55;2.30;;;20.60;99.90;;;;;;4863322;29;39450;-82
2022/07/24 06:35:11;;;;;;;4.50;3.03;;;20.80;99.90;;;;;;4855788;29;37895;-82
2022/07/24 06:37:37;;;;;;;7.07;2.80;;;20.90;99.90;;;;;;4871740;29;37939;-82
2022/07/24 06:40:04;;;;;;;3.17;2.33;;;21.00;99.90;;;;;;4854188;29;39090;-82
2022/07/24 06:42:31;;;;;;;4.20;2.50;;;21.10;99.90;;;;;;4872141;29;38771;-84
2022/07/24 06:44:57;;;;;;;5.50;2.08;;;21.30;99.90;;;;;;4854666;29;38911;-83
2022/07/24 06:47:25;;;;;;;3.42;2.20;;;21.20;99.90;;;;;;4871175;29;37763;-83
2022/07/24 06:49:55;;;;;;;2.42;2.20;;;21.20;99.90;;;;;;4872818;29;38887;-82
2022/07/24 06:52:22;;;;;;;3.63;2.28;;;21.20;99.90;;;;;;4855795;29;37196;-83
2022/07/24 06:54:48;;;;;;;2.67;1.55;;;21.20;99.90;;;;;;4854482;29;36695;-83
2022/07/24 06:57:16;;;;;;;1.88;1.67;;;21.30;99.90;;;;;;4852567;29;37197;-83
2022/07/24 06:59:42;;;;;;;2.25;1.98;;;21.60;99.90;;;;;;4855574;29;38091;-82
2022/07/24 07:02:08;;;;;;;2.88;1.73;;;21.60;99.90;;;;;;4873320;29;38944;-82
2022/07/24 07:04:34;;;;;;;3.83;1.98;;;21.60;99.90;;;;;;4855170;29;38564;-83
2022/07/24 07:07:02;;;;;;;4.28;2.45;;;21.50;99.90;;;;;;4856160;29;37386;-82
2022/07/24 07:09:28;;;;;;;2.58;1.88;;;21.50;99.90;;;;;;4872753;29;48958;-82
2022/07/24 07:11:54;;;;;;;3.38;1.80;;;21.70;99.90;;;;;;4872777;29;39122;-83
2022/07/24 07:14:20;;;;;;;2.67;1.95;;;21.90;99.90;;;;;;4855035;29;37739;-81
2022/07/24 07:16:47;;;;;;;2.47;2.00;;;21.80;99.90;;;;;;4856178;29;37047;-82
2022/07/24 07:19:13;;;;;;;3.05;1.80;;;21.70;99.90;;;;;;4852553;29;38075;-83
2022/07/24 07:21:39;;;;;;;1.77;1.65;;;21.70;99.90;;;;;;4854508;29;37331;-82
2022/07/24 07:24:06;;;;;;;2.30;1.38;;;22.00;99.90;;;;;;4855879;29;36612;-82
2022/07/24 07:26:32;;;;;;;1.88;1.77;;;22.50;99.90;;;;;;4871430;29;37707;-83
2022/07/24 07:28:58;;;;;;;4.82;2.05;;;22.80;99.90;;;;;;4872702;29;38784;-83
2022/07/24 07:31:26;;;;;;;2.72;2.30;;;22.90;99.90;;;;;;4853864;29;37304;-83
2022/07/24 07:33:53;;;;;;;3.00;1.70;;;22.90;99.90;;;;;;4873183;29;20049;-83
2022/07/24 07:36:19;;;;;;;1.55;1.42;;;22.90;99.90;;;;;;4860721;29;37928;-83
2022/07/24 07:38:45;;;;;;;2.80;1.73;;;23.20;99.90;;;;;;4855738;29;37671;-82
2022/07/24 07:41:12;;;;;;;2.50;1.40;;;23.20;99.90;;;;;;4875620;29;39416;-83
2022/07/24 07:43:38;;;;;;;1.63;1.48;;;23.40;99.90;;;;;;4855433;29;36968;-82
2022/07/24 07:46:05;;;;;;;2.63;1.23;;;23.50;99.90;;;;;;4856685;29;36134;-84
2022/07/24 07:48:31;;;;;;;2.80;1.83;;;23.70;99.90;;;;;;4860331;29;39353;-84
2022/07/24 07:50:58;;;;;;;2.30;1.58;;;23.50;99.90;;;;;;4858805;29;37701;-83
2022/07/24 07:53:24;;;;;;;2.53;1.77;;;23.30;99.90;;;;;;4853043;29;39316;-84
2022/07/24 07:55:52;;;;;;;2.30;1.67;;;23.10;99.90;;;;;;4857894;29;37445;-83
2022/07/24 07:58:19;;;;;;;5.18;1.63;;;23.20;99.90;;;;;;4857923;29;37718;-83
2022/07/24 08:00:45;;;;;;;4.22;1.77;;;23.40;99.90;;;;;;4857332;29;39760;-82
2022/07/24 08:03:11;;;;;;;2.00;1.30;;;23.80;99.90;;;;;;4871052;29;38693;-83
2022/07/24 08:05:37;;;;;;;1.83;1.50;;;23.90;99.90;;;;;;4873242;29;36896;-83
2022/07/24 08:08:04;;;;;;;5.15;1.73;;;24.00;99.90;;;;;;4855119;29;38332;-84
2022/07/24 08:10:30;;;;;;;2.08;1.40;;;24.40;99.90;;;;;;4875065;29;38718;-83
2022/07/24 08:12:56;;;;;;;2.97;1.60;;;24.70;99.90;;;;;;4856757;29;37901;-84
2022/07/24 08:15:22;;;;;;;2.90;1.73;;;24.60;99.90;;;;;;4856858;29;37273;-83
2022/07/24 08:17:53;;;;;;;2.00;1.55;;;24.40;99.90;;;;;;4857554;29;37944;-83
2022/07/24 08:20:19;;;;;;;2.63;1.60;;;24.40;99.90;;;;;;4848359;29;37629;-85
2022/07/24 08:22:46;;;;;;;3.40;1.70;;;24.80;99.90;;;;;;4872852;29;38272;-83
2022/07/24 08:25:12;;;;;;;2.28;1.70;;;24.60;99.90;;;;;;4846729;29;36383;-83
2022/07/24 08:27:38;;;;;;;4.72;1.70;;;24.20;99.90;;;;;;4856994;29;38006;-84
2022/07/24 08:30:07;;;;;;;3.58;2.05;;;24.10;99.90;;;;;;4873602;29;38233;-82
2022/07/24 08:32:34;;;;;;;1.73;1.30;;;24.10;99.90;;;;;;4857572;29;38370;-82
2022/07/24 08:35:00;;;;;;;1.88;1.70;;;24.50;99.90;;;;;;4855761;29;37215;-84
2022/07/24 08:37:26;;;;;;;2.63;1.80;;;24.90;99.90;;;;;;4857735;29;37769;-82
2022/07/24 08:39:54;;;;;;;3.08;1.90;;;25.00;99.90;;;;;;4859174;29;37094;-83
2022/07/24 08:42:21;;;;;;;1.92;1.75;;;25.00;99.90;;;;;;4855057;29;38397;-82
2022/07/24 08:44:47;;;;;;;3.38;2.22;;;25.20;99.90;;;;;;4858350;29;36077;-82
2022/07/24 08:47:15;;;;;;;5.45;1.63;;;25.30;99.90;;;;;;4875334;29;38850;-82
2022/07/24 08:49:44;;;;;;;3.00;1.77;;;25.50;99.90;;;;;;4856655;29;39557;-81
2022/07/24 08:52:10;;;;;;;2.45;2.05;;;25.40;99.90;;;;;;4846066;29;38019;-81
2022/07/24 08:54:36;;;;;;;3.58;2.15;;;25.50;99.90;;;;;;4859435;29;36769;-83
2022/07/24 08:57:04;;;;;;;1.83;1.60;;;25.70;99.90;;;;;;4857086;29;38546;-82
2022/07/24 08:59:30;;;;;;;2.97;1.80;;;25.30;99.90;;;;;;4858862;29;37509;-82
2022/07/24 09:01:56;;;;;;;3.40;1.73;;;25.50;99.90;;;;;;4856723;29;37542;-83
2022/07/24 09:04:34;;;;;;;3.25;1.67;;;25.90;99.90;;;;;;4873951;29;37958;-84
2022/07/24 09:07:03;;;;;;;3.83;1.98;;;26.30;99.90;;;;;;4858350;29;37899;-83
2022/07/24 09:09:29;;;;;;;2.42;1.63;;;25.90;99.90;;;;;;4856619;29;47233;-84
2022/07/24 09:12:15;;;;;;;6.22;1.60;;;26.10;99.90;;;;;;4856478;29;38198;-83
2022/07/24 09:14:44;;;;;;;2.30;1.45;;;26.00;99.90;;;;;;4851752;29;46915;-85
2022/07/24 09:17:19;;;;;;;2.08;1.30;;;25.90;99.90;;;;;;4854631;29;37733;-85
2022/07/24 09:19:53;;;;;;;2.47;1.75;;;26.40;99.90;;;;;;4855506;29;39530;-85
2022/07/24 09:22:32;;;;;;;2.80;1.80;;;26.40;99.90;;;;;;4857008;29;36698;-89
2022/07/24 09:25:14;;;;;;;2.13;1.80;;;26.00;99.90;;;;;;4858250;29;37976;-82
2022/07/24 09:27:51;;;;;;;1.80;1.40;;;26.10;99.90;;;;;;4854467;29;47359;-84
2022/07/24 09:30:23;;;;;;;2.63;1.83;;;26.20;99.90;;;;;;4873333;29;38212;-86
2022/07/24 09:32:57;;;;;;;3.55;1.60;;;26.20;99.90;;;;;;4859214;29;37198;-84
2022/07/24 09:35:29;;;;;;;6.10;2.00;;;26.30;99.90;;;;;;4855342;29;36711;-84
2022/07/24 09:37:58;;;;;;;2.10;1.90;;;26.50;99.90;;;;;;4856569;29;37715;-86
2022/07/24 09:40:30;;;;;;;2.72;1.90;;;26.80;99.90;;;;;;4856806;29;38148;-87
2022/07/24 09:43:19;;;;;;;1.58;1.48;;;26.80;99.90;;;;;;4873881;29;38714;-84
2022/07/24 09:45:56;;;;;;;3.13;2.00;;;26.60;99.90;;;;;;4855507;29;47345;-85
2022/07/24 09:48:25;;;;;;;2.53;1.55;;;26.70;99.90;;;;;;4876818;29;39546;-84
2022/07/24 09:50:53;;;;;;;2.00;1.75;;;27.00;99.90;;;;;;4858622;29;37344;-88
2022/07/24 09:53:25;;;;;;;3.05;1.90;;;26.90;99.90;;;;;;4856983;29;38272;-86
2022/07/24 09:56:03;;;;;;;3.05;1.75;;;27.20;99.90;;;;;;4869079;29;37479;-86
2022/07/24 09:58:31;;;;;;;2.60;1.90;;;27.30;99.90;;;;;;4873440;29;48748;-85
2022/07/24 10:01:00;;;;;;;2.85;1.90;;;27.40;99.90;;;;;;4857569;29;37504;-84
2022/07/24 10:03:31;;;;;;;3.92;2.30;;;27.40;99.90;;;;;;4872745;29;38313;-85
2022/07/24 10:06:01;;;;;;;2.67;2.05;;;27.60;99.90;;;;;;4874635;29;37050;-83
2022/07/24 10:08:28;;;;;;;2.25;1.80;;;27.60;99.90;;;;;;4854388;29;48510;-85
2022/07/24 10:10:55;;;;;;;6.55;2.20;;;27.40;99.90;;;;;;4873425;29;38414;-86
2022/07/24 10:13:21;;;;;;;5.43;1.80;;;27.70;99.90;;;;;;4855445;29;38709;-85
2022/07/24 10:15:54;;;;;;;3.30;2.20;;;27.80;99.90;;;;;;4856917;29;36239;-88
2022/07/24 10:18:22;;;;;;;5.10;2.00;;;28.00;99.90;;;;;;4855532;29;37443;-84
2022/07/24 10:20:48;;;;;;;3.28;1.70;;;27.70;99.90;;;;;;4855978;29;37288;-84
2022/07/24 10:23:27;;;;;;;4.05;1.80;;;27.80;99.90;;;;;;4872728;29;38948;-84
2022/07/24 10:25:59;;;;;;;3.47;2.22;;;27.90;99.90;;;;;;4857575;29;36316;-89
2022/07/24 10:28:53;;;;;;;5.25;2.80;;;28.00;99.90;;;;;;4857906;29;38077;-87
2022/07/24 10:31:19;;;;;;;3.38;2.03;;;27.60;99.90;;;;;;4863461;29;38556;-86
2022/07/24 10:33:52;;;;;;;4.60;2.15;;;27.50;99.90;;;;;;4857273;29;36879;-85
2022/07/24 10:36:26;;;;;;;3.88;2.40;;;27.90;99.90;;;;;;4872830;29;37701;-88
2022/07/24 10:39:00;;;;;;;5.38;2.10;;;28.10;99.90;;;;;;4855587;29;37967;-89
2022/07/24 10:41:26;;;;;;;3.58;2.13;;;27.80;99.90;;;;;;4855879;29;37443;-85
2022/07/24 10:44:19;;;;;;;2.78;2.00;;;28.00;99.90;;;;;;4857398;29;37001;-84
2022/07/24 10:47:04;;;;;;;5.60;1.98;;;28.20;99.90;;;;;;4871543;29;48140;-87
2022/07/24 10:49:36;;;;;;;4.18;1.88;;;28.10;99.90;;;;;;4856524;29;47085;-87
2022/07/24 10:52:03;;;;;;;2.78;1.83;;;28.00;99.90;;;;;;4857154;29;37328;-85
2022/07/24 10:54:29;;;;;;;2.65;1.67;;;28.10;99.90;;;;;;4851748;29;38337;-85
2022/07/24 10:56:55;;;;;;;5.75;2.00;;;28.10;99.90;;;;;;4854740;29;37413;-86
2022/07/24 10:59:37;;;;;;;3.22;2.10;;;28.50;99.90;;;;;;4856578;29;38173;-86
2022/07/24 11:02:29;;;;;;;2.28;1.80;;;28.60;99.90;;;;;;4856158;29;37115;-85
2022/07/24 11:05:25;;;;;;;1.95;1.75;;;28.80;99.90;;;;;;4854921;29;36954;-87
2022/07/24 11:08:16;;;;;;;5.35;2.05;;;28.70;99.90;;;;;;4852799;29;47308;-87
2022/07/24 11:10:50;;;;;;;4.25;1.95;;;28.40;99.90;;;;;;4873065;29;47846;-86
2022/07/24 11:13:34;;;;;;;3.08;1.75;;;28.40;99.90;;;;;;4872199;29;38386;-86
2022/07/24 11:16:15;;;;;;;4.22;2.10;;;28.40;99.90;;;;;;4863896;29;36499;-86
2022/07/24 11:19:02;;;;;;;4.32;2.42;;;28.50;99.90;;;;;;4858703;29;47629;-84
2022/07/24 11:21:42;;;;;;;6.00;2.08;;;28.70;99.90;;;;;;4876296;29;48408;-88
2022/07/24 11:24:21;;;;;;;4.60;1.85;;;28.70;99.90;;;;;;4857951;29;37335;-88
2022/07/24 11:26:56;;;;;;;2.35;1.73;;;29.20;99.90;;;;;;4859131;29;38362;-87
2022/07/24 11:29:29;;;;;;;2.83;1.92;;;29.60;99.90;;;;;;4867340;29;37005;-91
2022/07/24 11:32:14;;;;;;;3.92;1.80;;;29.60;99.90;;;;;;4857997;29;37916;-87
2022/07/24 11:34:44;;;;;;;2.08;1.85;;;29.20;99.90;;;;;;4859176;29;47124;-88
2022/07/24 11:37:10;;;;;;;3.97;2.20;;;28.70;99.90;;;;;;4858712;29;37000;-88
2022/07/24 11:39:39;;;;;;;4.20;1.83;;;28.80;99.90;;;;;;4857261;29;36173;-85
2022/07/24 11:42:08;;;;;;;3.90;1.63;;;28.90;99.90;;;;;;4858634;29;37836;-84
2022/07/24 11:44:35;;;;;;;5.47;1.50;;;29.10;99.90;;;;;;4858296;29;37820;-85
2022/07/24 11:47:13;;;;;;;3.08;1.60;;;29.50;99.90;;;;;;4858023;29;38752;-83
2022/07/24 11:49:52;;;;;;;2.30;1.40;;;29.60;99.90;;;;;;4874031;29;37297;-84
2022/07/24 11:52:26;;;;;;;7.90;1.88;;;29.80;99.90;;;;;;4852964;29;37754;-84
2022/07/24 11:54:56;;;;;;;3.65;1.50;;;29.90;99.90;;;;;;4867508;29;38454;-85
2022/07/24 11:57:31;;;;;;;2.42;1.50;;;29.80;99.90;;;;;;4854480;29;37016;-82
2022/07/24 11:59:58;;;;;;;4.40;2.15;;;30.20;99.90;;;;;;4873267;29;36786;-85
2022/07/24 12:02:24;;;;;;;2.08;1.50;;;30.10;99.90;;;;;;4859012;29;37873;-84
2022/07/24 12:04:51;;;;;;;2.80;2.05;;;30.20;99.90;;;;;;4859524;29;38527;-86
2022/07/24 12:07:23;;;;;;;3.88;1.70;;;30.20;99.90;;;;;;4858601;29;38320;-86
2022/07/24 12:09:52;;;;;;;3.83;2.15;;;30.00;99.90;;;;;;4857794;29;37094;-90
2022/07/24 12:12:39;;;;;;;4.40;2.00;;;29.80;99.90;;;;;;4857133;29;37692;-85
2022/07/24 12:15:08;;;;;;;5.07;2.30;;;29.60;99.90;;;;;;4859476;29;37873;-87
2022/07/24 12:17:55;;;;;;;6.38;2.05;;;29.60;99.90;;;;;;4858566;29;37860;-85
2022/07/24 12:20:23;;;;;;;3.60;2.20;;;29.50;99.90;;;;;;4853416;29;36391;-86
2022/07/24 12:22:51;;;;;;;3.72;2.00;;;29.50;99.90;;;;;;4859889;29;37509;-89
2022/07/24 12:25:17;;;;;;;4.78;2.20;;;29.10;99.90;;;;;;4857465;29;37112;-89
2022/07/24 12:27:45;;;;;;;6.97;2.10;;;29.30;99.90;;;;;;4858488;29;37077;-87
2022/07/24 12:30:17;;;;;;;3.22;1.75;;;29.30;99.90;;;;;;4858593;29;36241;-86
2022/07/24 12:32:57;;;;;;;5.65;2.00;;;29.20;99.90;;;;;;4873754;29;39922;-86
2022/07/24 12:35:24;;;;;;;6.45;2.30;;;29.10;99.90;;;;;;4855927;29;38440;-87
2022/07/24 12:37:52;;;;;;;7.38;2.03;;;29.40;99.90;;;;;;4857556;29;37277;-86
2022/07/24 12:40:34;;;;;;;2.92;2.25;;;29.40;99.90;;;;;;4876325;29;37024;-88
2022/07/24 12:43:08;;;;;;;4.72;2.00;;;29.40;99.90;;;;;;4856061;29;38296;-86
2022/07/24 12:45:36;;;;;;;6.07;2.50;;;29.60;99.90;;;;;;4857700;29;47172;-87
2022/07/24 12:48:22;;;;;;;4.85;2.30;;;29.80;99.90;;;;;;4859584;29;37446;-89